Terminal Aerodrome Forecast
Issued by NWS

Home | Current Version | Previous Version | Text Only | Print | Product List | Glossary On
Versions: 1 2 3 4 5 6 7 8 9 10 11 12 13 14 15 16 17
000
FTUS43 KEAX 261120
TAFMKC
TAF
KMKC 261120Z 2612/2712 VRB05KT P6SM VCTS SCT060CB BKN120
      TEMPO 2612/2614 5SM -TSRA BKN040CB
     FM261500 19009KT P6SM SCT050
     FM270000 19006KT P6SM SCT150=

USA.gov is the U.S. government's official web portal to all federal, state and local government web resources and services.